Time;durP1;ratioP1;P1;durP2;ratioP2;P2;SDS_P1;SDS_P2;PMS_P1;PMS_P2;Temp;Humidity;BMP_temperature;BMP_pressure;BME280_temperature;BME280_humidity;BME280_pressure;Samples;Min_cycle;Max_cycle;Signal;HPM_P1;HPM_P2
2023/08/09 00:01:42;;;;;;;3.00;1.60;;;;;;;16.81;91.53;99926.15;180923;1259;44015;-87
2023/08/09 00:05:45;;;;;;;2.70;1.80;;;;;;;16.80;91.63;99923.52;181031;1259;43737;-87
2023/08/09 00:09:49;;;;;;;2.10;1.10;;;;;;;16.83;91.82;99921.92;180925;1259;43880;-86
2023/08/09 00:13:52;;;;;;;1.90;1.60;;;;;;;16.87;91.62;99925.72;181006;1259;44110;-86
2023/08/09 00:17:55;;;;;;;3.90;1.50;;;;;;;16.92;91.86;99932.03;180972;1259;59395;-87
2023/08/09 00:21:59;;;;;;;2.10;1.80;;;;;;;16.97;91.74;99935.02;181011;1259;44131;-87
2023/08/09 00:26:03;;;;;;;2.60;2.40;;;;;;;16.95;91.22;99936.52;180944;1259;43866;-86
2023/08/09 00:30:10;;;;;;;3.70;1.40;;;;;;;16.87;90.87;99933.48;180992;1259;43974;-86
2023/08/09 00:34:15;;;;;;;3.80;1.60;;;;;;;16.79;91.12;99937.77;181062;1259;43833;-86
2023/08/09 00:38:18;;;;;;;2.00;1.00;;;;;;;16.74;91.09;99936.74;181027;1259;57227;-87
2023/08/09 00:42:23;;;;;;;2.20;1.90;;;;;;;16.68;90.88;99932.61;181073;1260;44065;-87
2023/08/09 00:46:26;;;;;;;3.50;1.90;;;;;;;16.57;90.59;99936.34;180991;1258;43787;-86
2023/08/09 00:50:29;;;;;;;3.60;1.50;;;;;;;16.46;90.64;99941.02;181099;1260;43751;-87
2023/08/09 00:54:33;;;;;;;2.10;1.20;;;;;;;16.38;91.09;99948.82;181153;1260;43752;-86
2023/08/09 00:58:37;;;;;;;3.50;1.40;;;;;;;16.30;91.62;99947.93;181164;1259;58245;-87
2023/08/09 01:02:40;;;;;;;2.00;1.40;;;;;;;16.23;92.30;99954.46;181082;1259;43775;-87
2023/08/09 01:07:32;;;;;;;8.70;2.10;;;;;;;16.19;92.75;99956.52;181075;1259;43889;-87
2023/08/09 01:11:59;;;;;;;3.60;2.00;;;;;;;16.14;92.83;99953.09;181023;1258;43900;-87
2023/08/09 01:16:05;;;;;;;10.70;2.60;;;;;;;16.11;92.48;99956.46;181156;1258;43706;-87
2023/08/09 01:20:12;;;;;;;2.40;1.60;;;;;;;16.04;92.29;99952.80;181084;1258;57412;-86
2023/08/09 01:24:16;;;;;;;4.40;1.40;;;;;;;15.94;93.50;99953.27;181053;1258;43942;-87
2023/08/09 01:28:20;;;;;;;3.20;1.80;;;;;;;15.81;94.05;99953.03;181070;1259;44116;-87
2023/08/09 01:32:24;;;;;;;3.20;1.80;;;;;;;15.70;92.72;99951.53;180964;1259;43866;-87
2023/08/09 01:36:32;;;;;;;2.80;1.70;;;;;;;15.63;92.77;99945.91;181102;1259;43935;-87
2023/08/09 01:40:38;;;;;;;3.80;1.90;;;;;;;15.52;92.88;99947.39;181105;1258;59576;-87
2023/08/09 01:44:42;;;;;;;2.70;2.10;;;;;;;15.42;92.87;99945.96;181101;1259;43850;-87
2023/08/09 01:48:45;;;;;;;3.40;1.40;;;;;;;15.33;93.38;99941.40;181084;1259;44479;-87
2023/08/09 01:52:50;;;;;;;5.40;2.40;;;;;;;15.25;94.23;99938.13;180904;1259;45724;-87
2023/08/09 01:56:53;;;;;;;3.60;1.70;;;;;;;15.15;95.32;99935.86;180930;1258;43894;-87
2023/08/09 02:00:58;;;;;;;3.20;2.40;;;;;;;15.07;96.96;99937.20;180972;1259;60485;-87
2023/08/09 02:05:01;;;;;;;3.10;2.00;;;;;;;15.02;98.30;99932.69;181017;1259;43795;-87
2023/08/09 02:09:06;;;;;;;2.20;1.40;;;;;;;15.03;98.42;99926.77;181041;1259;44161;-87
2023/08/09 02:13:10;;;;;;;4.00;1.70;;;;;;;15.02;98.71;99932.73;181058;1257;43772;-87
2023/08/09 02:17:14;;;;;;;2.80;2.20;;;;;;;15.07;98.76;99939.57;181013;1258;44001;-87
2023/08/09 02:21:17;;;;;;;1.30;1.20;;;;;;;15.10;98.79;99942.55;181005;1258;59624;-87
2023/08/09 02:25:20;;;;;;;4.60;2.20;;;;;;;15.14;98.90;99940.20;181035;1258;43995;-87
2023/08/09 02:29:24;;;;;;;2.70;1.50;;;;;;;15.12;98.69;99940.60;181231;1258;44007;-87
2023/08/09 02:33:28;;;;;;;3.80;1.60;;;;;;;15.10;99.04;99944.34;181105;1259;43950;-87
2023/08/09 02:37:31;;;;;;;3.30;1.70;;;;;;;15.09;98.94;99941.78;181085;1258;43849;-87
2023/08/09 02:41:34;;;;;;;2.50;1.80;;;;;;;15.07;99.54;99944.48;181024;1259;58195;-87
2023/08/09 02:45:38;;;;;;;2.60;1.90;;;;;;;15.06;99.43;99945.48;181021;1259;43925;-87
2023/08/09 02:49:43;;;;;;;4.30;2.10;;;;;;;15.05;99.48;99946.34;181035;1259;44173;-87
2023/08/09 02:54:03;;;;;;;2.80;2.00;;;;;;;15.06;99.72;99948.78;180932;1259;43810;-87
2023/08/09 02:58:06;;;;;;;1.90;1.50;;;;;;;15.07;99.07;99950.73;180866;1259;44014;-87
2023/08/09 03:02:09;;;;;;;2.40;1.30;;;;;;;15.07;98.65;99950.65;180900;1258;59582;-86
2023/08/09 03:06:13;;;;;;;2.70;1.80;;;;;;;14.96;98.23;99955.35;181030;1259;43790;-87
2023/08/09 03:10:16;;;;;;;3.20;1.80;;;;;;;14.92;98.60;99956.05;180901;1259;43791;-87
2023/08/09 03:14:19;;;;;;;2.40;1.60;;;;;;;14.92;98.31;99963.26;181113;1259;43952;-87
2023/08/09 03:18:22;;;;;;;2.50;1.70;;;;;;;14.89;98.12;99973.03;180965;1259;43770;-86
2023/08/09 03:22:26;;;;;;;5.50;2.10;;;;;;;14.85;98.10;99973.02;180921;1259;58279;-87
2023/08/09 03:26:29;;;;;;;3.30;2.20;;;;;;;14.83;98.28;99970.63;180991;1259;44214;-87
2023/08/09 03:30:33;;;;;;;2.50;1.80;;;;;;;14.81;98.43;99964.40;180917;1259;43841;-87
2023/08/09 03:34:36;;;;;;;2.90;2.00;;;;;;;14.76;99.44;99946.84;181136;1259;44159;-87
2023/08/09 03:38:39;;;;;;;2.00;1.70;;;;;;;14.61;99.98;99941.39;180992;1258;43915;-87
2023/08/09 03:42:43;;;;;;;3.10;2.30;;;;;;;14.57;100.00;99939.55;181049;1259;59548;-87
2023/08/09 03:46:46;;;;;;;5.40;2.60;;;;;;;14.61;100.00;99934.54;181242;1258;44116;-87
2023/08/09 03:50:49;;;;;;;1.60;1.50;;;;;;;14.62;100.00;99929.75;181062;1258;43778;-87
2023/08/09 03:54:55;;;;;;;3.10;1.50;;;;;;;14.62;100.00;99918.98;181045;1259;43803;-87
2023/08/09 03:58:58;;;;;;;6.10;3.00;;;;;;;14.68;100.00;99920.21;180955;1259;43953;-87
2023/08/09 04:03:02;;;;;;;17.10;8.30;;;;;;;14.80;100.00;99916.42;181112;1259;59323;-87
2023/08/09 04:07:06;;;;;;;8.50;4.40;;;;;;;14.92;100.00;99910.34;180978;1258;43874;-88
2023/08/09 04:11:09;;;;;;;5.30;2.80;;;;;;;14.93;100.00;99910.08;180946;1259;44192;-87
2023/08/09 04:15:13;;;;;;;3.40;2.60;;;;;;;14.76;100.00;99910.41;181175;1258;43835;-86
2023/08/09 04:19:17;;;;;;;7.40;2.60;;;;;;;14.62;100.00;99903.63;181219;1259;43726;-86
2023/08/09 04:23:21;;;;;;;6.60;3.50;;;;;;;14.51;100.00;99904.62;180928;1259;57416;-87
2023/08/09 04:27:24;;;;;;;4.00;2.30;;;;;;;14.58;100.00;99908.00;180951;1259;43877;-86
2023/08/09 04:31:28;;;;;;;4.20;1.90;;;;;;;14.79;100.00;99910.87;181044;1260;43861;-87
2023/08/09 04:35:33;;;;;;;4.10;2.50;;;;;;;15.04;100.00;99910.77;181150;1259;44069;-86
2023/08/09 04:39:36;;;;;;;5.80;2.90;;;;;;;15.24;100.00;99911.11;181304;1259;44181;-86
2023/08/09 04:43:44;;;;;;;2.70;2.10;;;;;;;15.46;100.00;99914.70;181019;1259;57414;-86
2023/08/09 04:47:52;;;;;;;2.90;1.60;;;;;;;15.87;100.00;99913.09;181147;1258;44193;-86
2023/08/09 04:51:55;;;;;;;2.60;1.70;;;;;;;16.68;100.00;99908.54;181078;1260;43816;-86
2023/08/09 04:55:58;;;;;;;5.30;2.70;;;;;;;17.41;98.68;99906.88;181051;1259;43892;-86
2023/08/09 05:00:03;;;;;;;2.80;1.50;;;;;;;17.67;93.45;99898.09;180967;1258;43884;-86
2023/08/09 05:04:07;;;;;;;3.40;1.80;;;;;;;17.60;92.63;99902.59;181021;1259;58984;-86
2023/08/09 05:08:11;;;;;;;3.80;2.60;;;;;;;17.42;93.22;99903.51;180863;1258;232012;-86
2023/08/09 05:12:14;;;;;;;4.50;2.40;;;;;;;17.28;94.31;99902.55;180939;1259;44634;-86
2023/08/09 05:16:24;;;;;;;2.90;1.80;;;;;;;17.16;95.06;99903.74;181012;1259;43845;-86
2023/08/09 05:20:27;;;;;;;3.40;2.20;;;;;;;16.94;96.47;99909.27;180990;1258;43742;-86
2023/08/09 05:24:31;;;;;;;4.30;2.20;;;;;;;16.91;97.14;99911.62;181207;1260;59636;-86
2023/08/09 05:28:35;;;;;;;4.00;1.50;;;;;;;16.91;98.27;99915.98;181069;1259;44233;-86
2023/08/09 05:32:39;;;;;;;3.80;1.70;;;;;;;16.85;99.50;99921.52;181134;1259;44145;-86
2023/08/09 05:36:44;;;;;;;6.00;2.10;;;;;;;16.85;99.43;99935.14;180896;1259;43703;-86
2023/08/09 05:40:48;;;;;;;5.70;2.50;;;;;;;16.81;99.98;99940.08;181084;1259;43785;-86
2023/08/09 05:44:52;;;;;;;3.90;2.00;;;;;;;16.81;100.00;99948.83;181219;1258;60192;-86
2023/08/09 05:48:56;;;;;;;16.90;1.90;;;;;;;16.86;100.00;99959.89;180975;1258;44021;-86
2023/08/09 05:52:59;;;;;;;3.00;2.10;;;;;;;16.93;100.00;99962.93;181045;1258;43726;-86
2023/08/09 05:57:03;;;;;;;5.30;2.40;;;;;;;16.98;100.00;99964.69;181025;1259;44087;-86
2023/08/09 06:01:08;;;;;;;2.00;1.40;;;;;;;17.03;100.00;99967.39;181036;1259;44056;-86
2023/08/09 06:05:24;;;;;;;2.70;1.70;;;;;;;17.03;100.00;99970.60;181032;1258;60273;-86
2023/08/09 06:09:28;;;;;;;;;;;;;;;17.05;100.00;99974.67;180994;1258;43851;-86
2023/08/09 06:13:32;;;;;;;2.70;2.10;;;;;;;17.05;100.00;99974.71;181121;1258;45561;-86
2023/08/09 06:17:35;;;;;;;3.70;2.20;;;;;;;17.06;100.00;99979.36;181009;1261;43897;-86
2023/08/09 06:21:39;;;;;;;5.50;1.70;;;;;;;17.06;100.00;99985.81;181093;1260;43996;-86
2023/08/09 06:25:42;;;;;;;6.60;1.80;;;;;;;17.09;100.00;99984.27;181045;1258;59827;-86
2023/08/09 06:29:46;;;;;;;3.30;1.80;;;;;;;17.17;100.00;99988.89;181123;1259;43946;-86
2023/08/09 06:33:49;;;;;;;1.90;1.60;;;;;;;17.18;100.00;99997.92;181049;1257;43826;-86
2023/08/09 06:37:52;;;;;;;3.80;2.50;;;;;;;17.14;100.00;100008.25;181030;1258;43862;-86
2023/08/09 06:42:12;;;;;;;3.70;2.30;;;;;;;17.05;100.00;100016.05;181044;1258;44006;-86
2023/08/09 06:46:15;;;;;;;6.00;2.70;;;;;;;16.99;100.00;100020.84;181039;1258;59255;-86
2023/08/09 06:50:19;;;;;;;3.80;2.50;;;;;;;16.97;100.00;100025.83;181124;1259;43848;-86
2023/08/09 06:54:22;;;;;;;5.80;3.00;;;;;;;16.92;100.00;100023.77;181015;1260;43836;-87
2023/08/09 06:58:26;;;;;;;2.30;1.80;;;;;;;16.82;100.00;100023.40;181144;1259;43814;-86
2023/08/09 07:02:30;;;;;;;2.80;2.10;;;;;;;16.72;100.00;100022.77;181052;1259;43965;-87
2023/08/09 07:06:34;;;;;;;4.10;2.40;;;;;;;16.75;100.00;100016.11;180995;1260;59587;-86
2023/08/09 07:10:38;;;;;;;6.90;1.90;;;;;;;16.83;100.00;100016.88;181006;1260;44220;-87
2023/08/09 07:14:42;;;;;;;3.90;1.70;;;;;;;16.94;100.00;100017.55;181046;1259;43939;-87
2023/08/09 07:18:46;;;;;;;3.50;2.10;;;;;;;17.02;100.00;100020.50;181094;1259;44175;-87
2023/08/09 07:22:52;;;;;;;2.50;1.60;;;;;;;17.16;100.00;100021.08;181132;1259;43791;-87
2023/08/09 07:26:58;;;;;;;4.30;2.20;;;;;;;17.34;100.00;100022.46;181016;1260;59630;-86
2023/08/09 07:31:02;;;;;;;4.70;3.30;;;;;;;17.46;100.00;100026.12;181062;1259;43853;-87
2023/08/09 07:35:08;;;;;;;5.60;2.30;;;;;;;17.51;100.00;100029.96;181045;1258;43926;-87
2023/08/09 07:39:12;;;;;;;8.70;2.80;;;;;;;17.50;100.00;100021.13;181006;1259;43997;-87
2023/08/09 07:43:16;;;;;;;9.20;2.80;;;;;;;17.53;100.00;100030.81;181130;1260;43962;-87
2023/08/09 07:47:20;;;;;;;4.30;2.40;;;;;;;17.40;100.00;100025.82;181004;1259;58707;-87
2023/08/09 07:51:23;;;;;;;6.10;3.60;;;;;;;17.29;100.00;100022.61;180990;1259;43870;-87
2023/08/09 07:55:27;;;;;;;5.10;4.20;;;;;;;17.35;100.00;100013.58;181082;1258;43817;-87
2023/08/09 07:59:30;;;;;;;4.30;3.40;;;;;;;17.42;100.00;100019.19;181041;1260;43897;-87
2023/08/09 08:03:34;;;;;;;4.50;3.50;;;;;;;17.42;100.00;100013.98;180999;1258;43945;-87
2023/08/09 08:07:42;;;;;;;6.20;3.80;;;;;;;17.52;100.00;100010.19;181044;1258;59273;-87
2023/08/09 08:11:46;;;;;;;6.50;4.40;;;;;;;17.67;100.00;100013.68;181122;1259;43891;-87
2023/08/09 08:15:52;;;;;;;6.40;3.50;;;;;;;17.74;100.00;100016.92;180821;1259;43853;-87
2023/08/09 08:19:56;;;;;;;6.40;4.00;;;;;;;17.84;100.00;100016.11;180985;1259;43981;-87
2023/08/09 08:24:04;;;;;;;;;;;;;;;17.83;100.00;100007.48;181061;1259;44010;-87
2023/08/09 08:28:08;;;;;;;;;;;;;;;17.84;100.00;99997.07;181180;1260;57989;-86
2023/08/09 08:32:14;;;;;;;8.20;6.10;;;;;;;17.76;100.00;99983.16;180970;1260;43782;-87
2023/08/09 08:36:18;;;;;;;4.00;2.20;;;;;;;17.65;100.00;99987.20;181009;1258;44197;-87
2023/08/09 08:40:33;;;;;;;7.50;4.60;;;;;;;17.59;100.00;99997.54;180968;1259;44104;-87
2023/08/09 08:44:36;;;;;;;5.90;3.10;;;;;;;17.59;100.00;99994.30;180993;1260;43863;-87
2023/08/09 08:48:45;;;;;;;3.50;2.80;;;;;;;17.68;100.00;99993.67;180943;1258;58288;-87
2023/08/09 08:52:51;;;;;;;9.10;3.90;;;;;;;17.93;100.00;99996.30;180999;1259;43987;-86
2023/08/09 08:56:55;;;;;;;2.50;2.10;;;;;;;18.21;100.00;99992.41;181031;1258;43757;-87
2023/08/09 09:00:59;;;;;;;3.40;3.00;;;;;;;18.41;100.00;99993.27;181142;1260;44006;-87
2023/08/09 09:05:03;;;;;;;3.80;2.00;;;;;;;18.51;100.00;99994.19;181064;1259;43798;-87
2023/08/09 09:09:13;;;;;;;4.30;2.20;;;;;;;18.46;99.96;99993.13;180887;1259;60482;-87
2023/08/09 09:13:27;;;;;;;4.90;3.20;;;;;;;18.46;99.37;99998.67;180987;1258;43897;-86
2023/08/09 09:17:38;;;;;;;3.10;2.30;;;;;;;18.38;98.69;100010.37;181036;1259;44048;-87
2023/08/09 09:21:41;;;;;;;5.50;2.80;;;;;;;18.32;96.14;100015.17;181015;1260;43874;-87
2023/08/09 09:25:45;;;;;;;2.60;2.40;;;;;;;18.18;97.23;100017.06;181039;1260;44065;-87
2023/08/09 09:29:50;;;;;;;5.40;2.90;;;;;;;18.17;98.90;100022.89;180999;1259;59532;-87
2023/08/09 09:33:53;;;;;;;8.30;3.70;;;;;;;18.08;100.00;100021.42;181100;1258;43900;-87
2023/08/09 09:38:01;;;;;;;5.70;2.50;;;;;;;18.01;100.00;100020.66;181164;1260;44043;-87
2023/08/09 09:42:05;;;;;;;3.10;2.30;;;;;;;17.99;100.00;100027.46;180993;1260;44122;-87
2023/08/09 09:46:19;;;;;;;3.90;1.40;;;;;;;17.97;99.99;100030.95;181017;1258;43851;-87
2023/08/09 09:50:39;;;;;;;2.50;2.10;;;;;;;18.00;100.00;100028.13;180993;1259;59535;-87
2023/08/09 09:54:42;;;;;;;2.40;1.50;;;;;;;18.14;100.00;100030.63;181161;1259;44040;-87
2023/08/09 09:58:47;;;;;;;2.00;1.70;;;;;;;18.21;100.00;100026.99;181046;1260;43938;-87
2023/08/09 10:02:52;;;;;;;2.00;1.40;;;;;;;18.17;98.76;100027.56;181003;1258;43874;-87
2023/08/09 10:06:56;;;;;;;1.20;1.10;;;;;;;18.12;99.49;100028.48;180994;1260;43869;-86
2023/08/09 10:11:02;;;;;;;1.50;1.40;;;;;;;18.10;100.00;100023.03;181005;1258;57816;-86
2023/08/09 10:15:07;;;;;;;5.80;2.10;;;;;;;18.15;100.00;100016.73;181070;1258;43911;-87
2023/08/09 10:19:20;;;;;;;3.60;2.20;;;;;;;17.98;100.00;99999.96;181032;1260;44216;-87
2023/08/09 10:23:26;;;;;;;2.80;2.30;;;;;;;17.74;100.00;99987.21;181000;1260;43889;-87
2023/08/09 10:27:51;;;;;;;4.50;3.90;;;;;;;17.68;100.00;99987.39;181017;1260;44205;-87
2023/08/09 10:31:59;;;;;;;5.20;2.60;;;;;;;17.75;100.00;99985.66;181214;1259;57159;-87
2023/08/09 10:36:03;;;;;;;5.10;2.30;;;;;;;18.00;100.00;99991.55;181088;1259;43941;-87
2023/08/09 10:40:16;;;;;;;4.00;2.60;;;;;;;18.09;100.00;99996.32;181087;1260;43897;-87
2023/08/09 10:44:35;;;;;;;3.90;1.90;;;;;;;18.17;100.00;100009.44;181101;1260;43813;-87
2023/08/09 10:48:49;;;;;;;2.50;1.60;;;;;;;18.27;100.00;100021.52;181163;1260;43717;-87
2023/08/09 10:52:52;;;;;;;3.00;1.80;;;;;;;18.41;100.00;100026.20;181043;1259;59266;-86
2023/08/09 10:56:56;;;;;;;2.90;1.60;;;;;;;18.60;100.00;100022.27;181087;1260;43771;-86
2023/08/09 11:01:01;;;;;;;1.50;1.20;;;;;;;18.84;100.00;100020.30;181077;1258;44018;-86
2023/08/09 11:05:11;;;;;;;1.90;1.30;;;;;;;19.11;99.99;100015.98;181124;1259;44017;-86
2023/08/09 11:09:24;;;;;;;2.90;1.70;;;;;;;19.43;99.93;100022.37;181037;1260;44147;-86
2023/08/09 11:13:32;;;;;;;2.20;1.60;;;;;;;19.54;99.56;100028.25;180988;1260;61143;-86
2023/08/09 11:17:50;;;;;;;1.40;1.30;;;;;;;19.75;99.18;100029.95;180959;1259;43934;-86
2023/08/09 11:21:56;;;;;;;1.50;1.40;;;;;;;19.94;95.00;100034.85;180963;1260;44167;-86
2023/08/09 11:26:02;;;;;;;2.50;1.30;;;;;;;20.10;99.62;100039.71;180923;1258;45076;-86
2023/08/09 11:30:09;;;;;;;1.40;0.90;;;;;;;20.45;95.48;100048.95;181034;1262;44134;-86
2023/08/09 11:34:18;;;;;;;1.40;1.00;;;;;;;20.60;92.76;100056.93;181059;1259;59654;-85
2023/08/09 11:38:23;;;;;;;1.30;1.20;;;;;;;20.59;90.92;100053.98;180999;1260;43873;-86
2023/08/09 11:42:28;;;;;;;;;;;;;;;20.53;87.51;100048.29;180995;1260;43908;-86
2023/08/09 11:46:33;;;;;;;0.80;0.80;;;;;;;20.30;90.21;100050.27;181182;1260;43825;-86
2023/08/09 11:50:38;;;;;;;1.20;0.90;;;;;;;20.30;91.27;100049.34;181049;1259;43881;-86
2023/08/09 11:54:43;;;;;;;1.00;1.00;;;;;;;20.41;93.35;100051.48;181345;1259;59587;-86
2023/08/09 11:58:53;;;;;;;2.30;1.20;;;;;;;20.48;90.15;100055.91;181093;1260;43847;-86
2023/08/09 12:03:05;;;;;;;1.60;1.30;;;;;;;20.61;92.25;100055.37;181084;1259;44002;-86
2023/08/09 12:07:10;;;;;;;1.80;1.50;;;;;;;20.79;89.27;100055.28;181032;1260;43837;-86
2023/08/09 12:11:16;;;;;;;2.20;1.70;;;;;;;20.96;87.64;100055.40;181040;1259;46050;-86
2023/08/09 12:15:21;;;;;;;2.50;2.00;;;;;;;20.96;85.57;100045.73;180882;1260;60452;-86
2023/08/09 12:19:27;;;;;;;1.40;1.20;;;;;;;20.97;83.93;100048.29;181073;1260;43866;-86
2023/08/09 12:23:30;;;;;;;2.40;1.60;;;;;;;21.01;81.96;100048.27;180927;1259;43955;-86
2023/08/09 12:27:34;;;;;;;1.40;1.00;;;;;;;21.05;82.02;100046.65;180916;1260;43845;-86
2023/08/09 12:31:38;;;;;;;2.00;1.70;;;;;;;21.23;81.40;100035.75;181116;1260;43804;-86
2023/08/09 12:35:44;;;;;;;2.10;1.30;;;;;;;21.31;81.15;100037.73;180959;1260;58945;-86
2023/08/09 12:39:48;;;;;;;2.20;1.20;;;;;;;21.47;80.10;100043.27;181092;1258;43840;-86
2023/08/09 12:43:51;;;;;;;1.50;1.20;;;;;;;21.50;76.04;100043.04;181030;1260;43802;-86
2023/08/09 12:47:55;;;;;;;1.90;1.20;;;;;;;21.52;75.52;100049.00;181075;1259;43926;-85
2023/08/09 12:52:00;;;;;;;1.10;1.00;;;;;;;21.45;77.94;100051.48;181116;1260;43814;-85
2023/08/09 12:56:03;;;;;;;2.00;1.50;;;;;;;21.30;75.30;100060.95;181113;1259;59637;-86
2023/08/09 13:00:08;;;;;;;1.70;1.30;;;;;;;21.27;76.86;100058.66;181043;1260;43931;-86
2023/08/09 13:04:12;;;;;;;1.30;0.90;;;;;;;21.13;76.10;100065.13;181029;1260;44033;-86
2023/08/09 13:08:15;;;;;;;1.80;0.90;;;;;;;21.14;73.44;100062.93;181332;1259;43702;-86
2023/08/09 13:12:24;;;;;;;3.60;2.40;;;;;;;21.24;77.99;100057.90;181049;1260;44453;-86
2023/08/09 13:16:29;;;;;;;1.50;0.90;;;;;;;21.52;77.45;100046.48;180918;1259;58660;-85
2023/08/09 13:20:33;;;;;;;3.20;1.00;;;;;;;21.75;75.95;100046.28;181057;1259;44211;-87
2023/08/09 13:24:36;;;;;;;1.40;1.10;;;;;;;21.90;71.26;100037.19;180907;1259;44145;-85
2023/08/09 13:28:40;;;;;;;1.80;0.90;;;;;;;22.05;70.71;100041.15;180964;1259;43860;-84
2023/08/09 13:32:43;;;;;;;2.10;1.00;;;;;;;22.26;70.60;100040.15;180942;1259;43903;-84
2023/08/09 13:36:47;;;;;;;1.40;0.80;;;;;;;22.37;69.08;100046.27;181082;1259;59567;-84
2023/08/09 13:40:50;;;;;;;0.90;0.70;;;;;;;22.27;65.26;100043.41;181013;1259;43916;-84
2023/08/09 13:44:53;;;;;;;1.00;0.70;;;;;;;22.22;65.50;100040.20;181056;1261;43773;-84
2023/08/09 13:48:57;;;;;;;1.30;0.70;;;;;;;22.25;65.32;100045.04;181050;1260;43832;-85
2023/08/09 13:53:06;;;;;;;1.80;0.80;;;;;;;22.31;61.92;100046.20;180975;1260;44032;-85
2023/08/09 13:57:13;;;;;;;0.70;0.40;;;;;;;22.35;63.26;100051.23;180949;1259;58230;-84
2023/08/09 14:01:18;;;;;;;2.60;1.00;;;;;;;22.41;61.67;100051.14;181089;1258;44063;-85
2023/08/09 14:05:24;;;;;;;1.40;0.80;;;;;;;22.25;61.10;100057.83;180910;1261;43762;-86
2023/08/09 14:09:29;;;;;;;2.40;0.80;;;;;;;22.03;60.85;100061.23;181025;1259;43826;-87
2023/08/09 14:13:36;;;;;;;1.20;0.60;;;;;;;21.88;61.39;100064.39;180975;1260;44480;-87
2023/08/09 14:17:40;;;;;;;2.10;0.70;;;;;;;21.79;64.47;100069.48;181408;1261;59569;-86
2023/08/09 14:21:45;;;;;;;2.90;1.80;;;;;;;21.82;63.62;100070.13;181053;1259;43845;-87
2023/08/09 14:25:49;;;;;;;3.20;1.20;;;;;;;21.87;68.04;100075.92;180928;1259;44081;-87
2023/08/09 14:29:54;;;;;;;1.00;0.90;;;;;;;21.96;67.86;100078.14;181040;1260;44055;-86
2023/08/09 14:34:01;;;;;;;0.90;0.70;;;;;;;22.07;66.93;100080.45;181072;1260;44045;-86
2023/08/09 14:38:06;;;;;;;5.20;1.80;;;;;;;22.22;64.76;100078.23;181139;1259;59305;-87
2023/08/09 14:42:11;;;;;;;1.50;0.80;;;;;;;22.33;64.67;100082.95;181042;1258;43677;-87
2023/08/09 14:46:15;;;;;;;1.20;0.80;;;;;;;22.45;62.25;100091.98;181107;1258;43836;-86
2023/08/09 14:50:19;;;;;;;2.50;1.00;;;;;;;22.42;63.95;100094.55;181093;1259;43778;-86
2023/08/09 14:54:25;;;;;;;1.60;1.20;;;;;;;22.03;64.24;100100.98;181070;1259;44043;-86
2023/08/09 14:58:43;;;;;;;1.80;1.10;;;;;;;21.89;67.13;100102.34;181037;1259;60182;-88
2023/08/09 15:02:47;;;;;;;1.50;1.10;;;;;;;21.89;65.87;100109.08;180908;1259;43946;-86
2023/08/09 15:06:50;;;;;;;1.50;1.20;;;;;;;21.91;67.24;100110.67;180978;1259;44216;-86
2023/08/09 15:10:57;;;;;;;1.20;1.10;;;;;;;22.03;64.82;100112.90;180951;1258;44233;-86
2023/08/09 15:15:01;;;;;;;1.20;0.90;;;;;;;22.08;64.63;100112.23;180980;1259;44091;-86
2023/08/09 15:19:04;;;;;;;3.20;1.70;;;;;;;22.04;66.93;100115.90;180962;1259;59644;-86
2023/08/09 15:23:08;;;;;;;2.40;1.40;;;;;;;21.88;66.18;100122.36;180984;1260;43762;-86
2023/08/09 15:27:11;;;;;;;4.30;2.10;;;;;;;21.62;66.09;100126.27;181188;1259;43920;-87
2023/08/09 15:31:14;;;;;;;2.60;1.50;;;;;;;21.55;66.70;100127.64;180947;1260;43900;-86
2023/08/09 15:35:19;;;;;;;2.60;1.60;;;;;;;21.60;64.97;100129.13;181162;1259;43895;-86
2023/08/09 15:39:22;;;;;;;4.50;1.30;;;;;;;21.65;64.14;100135.37;181001;1259;59300;-86
2023/08/09 15:43:26;;;;;;;1.30;1.20;;;;;;;21.80;65.48;100136.21;181021;1258;44259;-85
2023/08/09 15:47:29;;;;;;;1.00;0.90;;;;;;;21.72;62.32;100142.11;181175;1259;43956;-85
2023/08/09 15:51:34;;;;;;;2.60;2.00;;;;;;;21.75;63.62;100147.52;181265;1259;44025;-85
2023/08/09 15:55:41;;;;;;;3.20;1.10;;;;;;;21.81;62.74;100144.73;180938;1259;44232;-85
2023/08/09 15:59:58;;;;;;;1.90;1.20;;;;;;;21.93;63.56;100145.80;181055;1259;59600;-85
2023/08/09 16:04:03;;;;;;;3.10;1.70;;;;;;;22.03;63.38;100147.94;181009;1259;43872;-85
2023/08/09 16:08:08;;;;;;;1.70;1.10;;;;;;;21.95;58.94;100155.75;181037;1259;43792;-85
2023/08/09 16:12:16;;;;;;;1.30;0.90;;;;;;;21.90;59.14;100160.89;181029;1259;44130;-86
2023/08/09 16:16:41;;;;;;;0.50;0.50;;;;;;;21.87;58.13;100161.77;181084;1259;44033;-86
2023/08/09 16:20:46;;;;;;;12.80;1.90;;;;;;;21.77;58.05;100166.90;181076;1259;57968;-86
2023/08/09 16:24:52;;;;;;;0.70;0.50;;;;;;;21.84;59.67;100171.42;181156;1258;43764;-85
2023/08/09 16:28:58;;;;;;;1.10;0.40;;;;;;;21.80;58.88;100170.86;181166;1259;43705;-85
2023/08/09 16:33:03;;;;;;;2.90;0.90;;;;;;;21.71;58.03;100180.79;181044;1258;43875;-85
2023/08/09 16:37:10;;;;;;;1.00;0.60;;;;;;;21.66;58.87;100186.84;181164;1259;43813;-85
2023/08/09 16:41:13;;;;;;;1.20;0.90;;;;;;;21.56;58.89;100194.09;181074;1259;59475;-86
2023/08/09 16:45:20;;;;;;;0.80;0.70;;;;;;;21.47;58.58;100196.77;181086;1258;43765;-86
2023/08/09 16:49:26;;;;;;;3.20;1.10;;;;;;;21.30;57.94;100199.07;181000;1260;43825;-86
2023/08/09 16:53:30;;;;;;;0.70;0.60;;;;;;;21.25;58.24;100206.21;181134;1258;43738;-86
2023/08/09 16:57:35;;;;;;;0.70;0.50;;;;;;;21.14;58.59;100210.30;181089;1259;43774;-86
2023/08/09 17:01:44;;;;;;;7.10;1.50;;;;;;;21.04;58.16;100211.98;181213;1259;59458;-86
2023/08/09 17:05:49;;;;;;;4.00;0.90;;;;;;;20.94;57.65;100217.21;180908;1259;225458;-86
2023/08/09 17:09:54;;;;;;;0.80;0.50;;;;;;;20.87;58.27;100218.38;181075;1259;44171;-86
2023/08/09 17:13:58;;;;;;;2.30;1.10;;;;;;;20.68;58.68;100222.51;181093;1258;43778;-86
2023/08/09 17:18:04;;;;;;;3.30;1.30;;;;;;;20.54;58.57;100223.92;181110;1259;43789;-86
2023/08/09 17:22:21;;;;;;;0.90;0.70;;;;;;;20.43;59.12;100224.92;181068;1258;60407;-86
2023/08/09 17:26:28;;;;;;;2.10;0.50;;;;;;;20.32;59.29;100236.45;181084;1258;43734;-87
2023/08/09 17:30:32;;;;;;;1.50;0.60;;;;;;;20.23;59.46;100237.31;181018;1259;43790;-86
2023/08/09 17:34:40;;;;;;;0.70;0.60;;;;;;;20.13;60.35;100239.52;181087;1259;44168;-86
2023/08/09 17:38:48;;;;;;;1.20;0.60;;;;;;;20.03;60.78;100245.59;181049;1259;43799;-86
2023/08/09 17:42:52;;;;;;;2.20;1.10;;;;;;;19.92;62.78;100254.83;180963;1258;59416;-86
2023/08/09 17:46:56;;;;;;;3.00;1.40;;;;;;;19.79;64.67;100264.27;181073;1259;43840;-85
2023/08/09 17:50:59;;;;;;;4.50;1.00;;;;;;;19.70;66.08;100267.52;181099;1259;44104;-86
2023/08/09 17:55:03;;;;;;;1.10;0.70;;;;;;;19.57;66.66;100268.80;180915;1258;43939;-86
2023/08/09 17:59:06;;;;;;;1.50;1.10;;;;;;;19.41;67.02;100268.78;181196;1258;44099;-86
2023/08/09 18:03:10;;;;;;;5.00;1.50;;;;;;;19.24;67.38;100275.24;180924;1259;59495;-86
2023/08/09 18:07:13;;;;;;;3.50;1.80;;;;;;;19.07;69.17;100279.95;180985;1258;44061;-86
2023/08/09 18:11:19;;;;;;;1.30;0.80;;;;;;;18.87;71.36;100282.81;181056;1258;44136;-85
2023/08/09 18:15:23;;;;;;;;;;;;;;;18.65;73.13;100289.52;180875;1258;49374;-86
2023/08/09 18:19:26;;;;;;;1.60;0.90;;;;;;;18.39;75.03;100300.34;180990;1258;43844;-86
2023/08/09 18:23:30;;;;;;;1.20;0.90;;;;;;;18.16;76.73;100306.35;181067;1258;60617;-86
2023/08/09 18:27:33;;;;;;;5.10;1.30;;;;;;;17.95;77.29;100309.27;180930;1258;44115;-86
2023/08/09 18:31:37;;;;;;;6.00;5.30;;;;;;;17.72;77.96;100321.64;180918;1259;43772;-86
2023/08/09 18:35:40;;;;;;;5.10;3.50;;;;;;;17.49;78.56;100326.22;180957;1258;43764;-86
2023/08/09 18:39:43;;;;;;;7.60;6.40;;;;;;;17.28;79.37;100331.52;180808;1259;43794;-87
2023/08/09 18:43:47;;;;;;;9.10;7.30;;;;;;;17.17;81.66;100334.83;180975;1258;59642;-86
2023/08/09 18:47:50;;;;;;;12.40;7.60;;;;;;;17.10;81.82;100346.08;181233;1257;43690;-86
2023/08/09 18:51:54;;;;;;;7.00;5.20;;;;;;;17.01;80.88;100351.42;180848;1258;43797;-85